Time,TemperatureF,DewpointF,PressureIn,WindDirection,WindDirectionDegrees,WindSpeedMPH,WindSpeedGustMPH,Humidity,HourlyPrecipIn,Conditions,Clouds,dailyrainin,SolarRadiationWatts/m^2,SoftwareType,DateUTC
2013-06-15 00:00:00,45.0,39.0,-100.00,SSW,204,0.0,2.0,78,-99.99,,,0.00,0.000000,,2013-06-15 06:00:00,
2013-06-15 00:53:00,45.0,39.0,-100.00,SSW,204,0.0,2.0,78,-99.99,,,0.00,0.000000,,2013-06-15 06:53:00,
2013-06-15 01:00:00,43.0,-99.9,-100.00,North,-999,-999.0,-999.0,-999,-99.99,,,0.00,,,2013-06-15 07:00:00,
2013-06-15 01:54:00,43.0,-99.9,-100.00,North,-999,-999.0,-999.0,-999,-99.99,,,0.00,,,2013-06-15 07:54:00,
2013-06-15 02:00:00,42.0,38.0,-100.00,South,170,0.0,2.0,87,-99.99,,,0.00,0.000000,,2013-06-15 08:00:00,
2013-06-15 02:53:00,42.0,38.0,-100.00,South,170,0.0,2.0,87,-99.99,,,0.00,0.000000,,2013-06-15 08:53:00,
2013-06-15 03:00:00,42.0,39.0,-100.00,SE,128,0.0,1.0,89,-99.99,,,-99.99,0.000000,,2013-06-15 09:00:00,
2013-06-15 03:52:00,42.0,39.0,-100.00,SE,128,0.0,1.0,89,-99.99,,,-99.99,0.000000,,2013-06-15 09:52:00,
2013-06-15 04:00:00,43.0,40.0,-100.00,SE,127,0.0,2.0,90,-99.99,,,0.00,0.000000,,2013-06-15 10:00:00,
2013-06-15 04:53:00,43.0,40.0,-100.00,SE,127,0.0,2.0,90,-99.99,,,0.00,0.000000,,2013-06-15 10:53:00,
2013-06-15 05:00:00,45.0,42.0,-100.00,SSE,148,0.0,2.0,90,-99.99,,,0.00,0.000000,,2013-06-15 11:00:00,
2013-06-15 05:53:00,45.0,42.0,-100.00,SSE,148,0.0,2.0,90,-99.99,,,0.00,0.000000,,2013-06-15 11:53:00,
2013-06-15 06:00:00,49.0,42.0,-100.00,SSE,160,1.0,3.0,77,-99.99,,,0.00,0.900000,,2013-06-15 12:00:00,
2013-06-15 06:52:00,49.0,42.0,-100.00,SSE,160,1.0,3.0,77,-99.99,,,0.00,0.900000,,2013-06-15 12:52:00,
2013-06-15 07:00:00,46.0,40.0,-100.00,South,178,0.0,2.0,78,-99.99,,,0.00,14.000000,,2013-06-15 13:00:00,
2013-06-15 07:53:00,46.0,40.0,-100.00,South,178,0.0,2.0,78,-99.99,,,0.00,14.000000,,2013-06-15 13:53:00,
2013-06-15 08:00:00,53.0,46.0,-100.00,SSE,154,0.0,1.0,79,-99.99,,,0.00,88.500000,,2013-06-15 14:00:00,
2013-06-15 08:54:00,53.0,46.0,-100.00,SSE,154,0.0,1.0,79,-99.99,,,0.00,88.500000,,2013-06-15 14:54:00,
2013-06-15 09:00:00,62.0,49.0,-100.00,SE,142,0.0,2.0,63,-99.99,,,0.00,73.300003,,2013-06-15 15:00:00,
2013-06-15 09:53:00,62.0,49.0,-100.00,SE,142,0.0,2.0,63,-99.99,,,0.00,73.300003,,2013-06-15 15:53:00,
2013-06-15 10:00:00,68.0,43.0,-100.00,NW,313,1.0,3.0,40,-99.99,,,0.00,558.299988,,2013-06-15 16:00:00,
2013-06-15 10:53:00,68.0,43.0,-100.00,NW,313,1.0,3.0,40,-99.99,,,0.00,558.299988,,2013-06-15 16:53:00,
2013-06-15 11:00:00,72.0,40.0,-100.00,WNW,303,1.0,4.0,32,-99.99,,,0.00,857.099976,,2013-06-15 17:00:00,
2013-06-15 12:00:00,75.0,35.0,-100.00,NW,308,2.0,4.0,23,-99.99,,,-99.99,978.299988,,2013-06-15 18:00:00,
2013-06-15 12:53:00,75.0,35.0,-100.00,NW,308,2.0,4.0,23,-99.99,,,-99.99,978.299988,,2013-06-15 18:53:00,
2013-06-15 13:00:00,74.0,30.0,-100.00,WNW,303,2.0,5.0,20,-99.99,,,0.00,,,2013-06-15 19:00:00,
2013-06-15 13:53:00,74.0,30.0,-100.00,WNW,303,2.0,5.0,20,-99.99,,,0.00,,,2013-06-15 19:53:00,
2013-06-15 14:00:00,75.0,30.0,-100.00,WNW,290,2.0,5.0,19,-99.99,,,0.00,873.900024,,2013-06-15 20:00:00,
2013-06-15 14:53:00,75.0,30.0,-100.00,WNW,290,2.0,5.0,19,-99.99,,,0.00,873.900024,,2013-06-15 20:53:00,
2013-06-15 15:00:00,72.0,27.0,-100.00,WNW,289,2.0,7.0,19,-99.99,,,0.00,490.500000,,2013-06-15 21:00:00,
2013-06-15 15:53:00,72.0,27.0,-100.00,WNW,289,2.0,7.0,19,-99.99,,,0.00,490.500000,,2013-06-15 21:53:00,
2013-06-15 16:00:00,72.0,27.0,-100.00,WSW,257,2.0,5.0,19,-99.99,,,0.00,162.699997,,2013-06-15 22:00:00,
2013-06-15 16:53:00,72.0,27.0,-100.00,WSW,257,2.0,5.0,19,-99.99,,,0.00,162.699997,,2013-06-15 22:53:00,
2013-06-15 17:00:00,72.0,29.0,-100.00,WSW,246,1.0,5.0,20,-99.99,,,0.00,147.100006,,2013-06-15 23:00:00,
2013-06-15 17:53:00,72.0,29.0,-100.00,WSW,246,1.0,5.0,20,-99.99,,,0.00,147.100006,,2013-06-15 23:53:00,
2013-06-15 18:00:00,74.0,25.0,-100.00,WNW,282,1.0,4.0,16,-99.99,,,0.00,130.300003,,2013-06-16 00:00:00,
2013-06-15 18:52:00,74.0,25.0,-100.00,WNW,282,1.0,4.0,16,-99.99,,,0.00,130.300003,,2013-06-16 00:52:00,
2013-06-15 19:00:00,71.0,20.0,-100.00,West,270,1.0,5.0,14,-99.99,,,-99.99,130.699997,,2013-06-16 01:00:00,
2013-06-15 19:53:00,71.0,20.0,-100.00,West,270,1.0,5.0,14,-99.99,,,-99.99,130.699997,,2013-06-16 01:53:00,
2013-06-15 20:00:00,66.0,19.0,-100.00,SW,230,1.0,5.0,16,-99.99,,,0.00,12.200000,,2013-06-16 02:00:00,
2013-06-15 20:53:00,66.0,19.0,-100.00,SW,230,1.0,5.0,16,-99.99,,,0.00,12.200000,,2013-06-16 02:53:00,
2013-06-15 21:00:00,63.0,23.0,-100.00,WSW,258,2.0,8.0,21,-99.99,,,0.00,0.300000,,2013-06-16 03:00:00,
2013-06-15 21:53:00,63.0,23.0,-100.00,WSW,258,2.0,8.0,21,-99.99,,,0.00,0.300000,,2013-06-16 03:53:00,
2013-06-15 22:00:00,60.0,27.0,-100.00,West,261,1.0,4.0,28,-99.99,,,0.00,0.000000,,2013-06-16 04:00:00,
2013-06-15 22:53:00,60.0,27.0,-100.00,West,261,1.0,4.0,28,-99.99,,,0.00,0.000000,,2013-06-16 04:53:00,
2013-06-15 23:00:00,59.0,29.0,-100.00,WSW,255,1.0,3.0,32,-99.99,,,0.00,0.000000,,2013-06-16 05:00:00,
2013-06-15 23:52:00,59.0,29.0,-100.00,WSW,255,1.0,3.0,32,-99.99,,,0.00,0.000000,,2013-06-16 05:52:00,